Time;durP1;ratioP1;P1;durP2;ratioP2;P2;SDS_P1;SDS_P2;PMS_P1;PMS_P2;Temp;Humidity;BMP_temperature;BMP_pressure;BME280_temperature;BME280_humidity;BME280_pressure;Samples;Min_cycle;Max_cycle;Signal;HPM_P1;HPM_P2
2024/02/07 00:01:55;;;;;;;21.42;6.55;;;;;;;9.63;100.00;100147.75;5019564;28;20037;-79
2024/02/07 00:04:21;;;;;;;19.58;5.43;;;;;;;9.58;100.00;100152.63;5024114;28;20097;-80
2024/02/07 00:06:46;;;;;;;17.35;6.28;;;;;;;9.58;100.00;100151.81;5013880;28;20029;-80
2024/02/07 00:09:11;;;;;;;15.98;5.43;;;;;;;9.62;100.00;100153.09;5012957;28;20029;-80
2024/02/07 00:11:37;;;;;;;12.52;5.80;;;;;;;9.53;100.00;100142.78;5009503;28;20042;-80
2024/02/07 00:14:02;;;;;;;21.50;5.45;;;;;;;9.58;100.00;100152.63;5009330;28;20029;-80
2024/02/07 00:16:28;;;;;;;19.90;5.88;;;;;;;9.52;100.00;100145.53;5014634;28;20038;-79
2024/02/07 00:18:53;;;;;;;24.02;6.45;;;;;;;9.50;100.00;100119.00;5012613;28;20033;-79
2024/02/07 00:21:19;;;;;;;21.15;6.43;;;;;;;9.56;100.00;100136.44;5028111;28;20040;-80
2024/02/07 00:23:45;;;;;;;18.55;5.30;;;;;;;9.51;100.00;100139.53;5027353;28;20041;-81
2024/02/07 00:26:11;;;;;;;15.60;5.68;;;;;;;9.58;100.00;100123.34;5025606;28;20057;-78
2024/02/07 00:28:36;;;;;;;14.95;6.10;;;;;;;9.58;100.00;100128.53;5027153;28;20438;-79
2024/02/07 00:31:04;;;;;;;15.88;5.43;;;;;;;9.55;100.00;100127.88;5028548;28;20111;-81
2024/02/07 00:33:29;;;;;;;16.77;6.35;;;;;;;9.57;100.00;100124.31;5007608;28;20045;-80
2024/02/07 00:35:55;;;;;;;20.65;6.40;;;;;;;9.58;100.00;100123.34;5022632;28;20033;-80
2024/02/07 00:38:20;;;;;;;25.50;6.00;;;;;;;9.59;100.00;100114.59;5025562;28;20104;-80
2024/02/07 00:40:46;;;;;;;17.70;5.90;;;;;;;9.66;100.00;100110.38;5027646;28;20052;-79
2024/02/07 00:43:14;;;;;;;17.15;6.40;;;;;;;9.64;100.00;100122.69;5026232;28;20040;-80
2024/02/07 00:45:40;;;;;;;21.45;5.63;;;;;;;9.66;100.00;100125.91;5024907;28;20071;-80
2024/02/07 00:48:05;;;;;;;15.98;5.47;;;;;;;9.58;100.00;100115.59;5030850;28;20443;-79
2024/02/07 00:50:31;;;;;;;17.48;5.97;;;;;;;9.65;100.00;100109.56;5026157;28;20045;-80
2024/02/07 00:52:56;;;;;;;14.18;5.95;;;;;;;9.65;100.00;100121.72;5029995;28;20640;-79
2024/02/07 00:55:22;;;;;;;16.27;5.65;;;;;;;9.64;100.00;100109.72;5009687;28;20041;-80
2024/02/07 00:57:48;;;;;;;16.30;5.80;;;;;;;9.63;100.00;100108.94;5029649;28;20148;-78
2024/02/07 01:00:15;;;;;;;13.48;5.93;;;;;;;9.65;100.00;100101.81;5011594;28;20049;-78
2024/02/07 01:02:41;;;;;;;17.88;6.20;;;;;;;9.58;100.00;100110.41;5026321;28;20064;-80
2024/02/07 01:05:08;;;;;;;22.02;6.13;;;;;;;9.59;100.00;100106.81;5027405;28;20064;-82
2024/02/07 01:07:34;;;;;;;17.00;6.05;;;;;;;9.60;100.00;100087.75;5023041;28;21142;-79
2024/02/07 01:09:59;;;;;;;15.35;6.30;;;;;;;9.64;100.00;100092.41;5008248;28;20033;-80
2024/02/07 01:12:25;;;;;;;16.92;5.88;;;;;;;9.59;100.00;100097.31;5009731;28;20029;-79
2024/02/07 01:14:50;;;;;;;18.75;6.60;;;;;;;9.65;100.00;100098.41;5009549;28;20532;-79
2024/02/07 01:17:16;;;;;;;17.23;6.47;;;;;;;9.53;100.00;100085.84;5006067;28;20029;-79
2024/02/07 01:19:41;;;;;;;14.30;5.35;;;;;;;9.49;100.00;100081.97;5008787;28;20484;-79
2024/02/07 01:22:07;;;;;;;21.55;6.35;;;;;;;9.56;100.00;100084.69;5007466;28;20041;-81
2024/02/07 01:24:32;;;;;;;21.45;5.70;;;;;;;9.63;100.00;100079.66;5009078;28;20041;-81
2024/02/07 01:26:59;;;;;;;18.88;6.63;;;;;;;9.58;100.00;100089.69;5024897;28;20048;-81
2024/02/07 01:29:24;;;;;;;14.52;5.68;;;;;;;9.55;100.00;100078.72;5015279;28;20095;-80
2024/02/07 01:31:51;;;;;;;15.30;6.28;;;;;;;9.51;100.00;100092.13;5024472;28;20492;-80
2024/02/07 01:34:18;;;;;;;23.63;6.78;;;;;;;9.50;100.00;100080.97;5013305;28;20386;-79
2024/02/07 01:36:47;;;;;;;19.95;7.28;;;;;;;9.55;100.00;100076.13;5025851;28;20045;-81
2024/02/07 01:39:15;;;;;;;15.13;6.35;;;;;;;9.51;100.00;100074.84;5010356;28;20079;-80
2024/02/07 01:41:59;;;;;;;19.33;6.15;;;;;;;9.46;100.00;100081.50;5032250;28;20037;-80
2024/02/07 01:44:29;;;;;;;16.10;6.97;;;;;;;9.49;100.00;100081.97;5013075;28;20130;-80
2024/02/07 01:47:11;;;;;;;18.52;6.95;;;;;;;9.57;100.00;100062.19;5023644;28;20052;-81
2024/02/07 01:49:51;;;;;;;18.52;6.90;;;;;;;9.49;100.00;100071.63;5011130;28;20052;-79
2024/02/07 01:52:19;;;;;;;17.13;6.60;;;;;;;9.47;100.00;100065.78;5020217;28;20500;-82
2024/02/07 01:54:45;;;;;;;20.65;6.32;;;;;;;9.51;100.00;100046.38;5021291;28;20044;-79
2024/02/07 01:57:13;;;;;;;13.52;6.60;;;;;;;9.48;100.00;100048.50;5010108;28;20034;-81
2024/02/07 01:59:40;;;;;;;19.02;6.55;;;;;;;9.44;100.00;100058.38;5012050;28;20038;-81
2024/02/07 02:02:07;;;;;;;18.05;7.22;;;;;;;9.50;100.00;100044.75;5025870;28;20037;-80
2024/02/07 02:04:33;;;;;;;17.70;6.80;;;;;;;9.49;100.00;100045.75;5011594;28;20495;-78
2024/02/07 02:06:59;;;;;;;19.25;7.03;;;;;;;9.42;100.00;100031.03;5012790;28;20029;-79
2024/02/07 02:09:24;;;;;;;23.35;7.90;;;;;;;9.46;100.00;100043.47;5015445;28;20037;-80
2024/02/07 02:11:52;;;;;;;18.40;6.38;;;;;;;9.46;100.00;100046.06;5024379;28;20087;-80
2024/02/07 02:14:18;;;;;;;18.33;6.00;;;;;;;9.48;100.00;100048.50;5008789;28;20033;-80
2024/02/07 02:16:44;;;;;;;16.65;5.70;;;;;;;9.50;100.00;100034.41;5020387;28;20042;-80
2024/02/07 02:19:09;;;;;;;18.15;6.25;;;;;;;9.47;100.00;100033.91;5008305;28;20029;-80
2024/02/07 02:22:16;;;;;;;19.77;6.50;;;;;;;9.48;100.00;100044.13;4999439;28;20084;-81
2024/02/07 02:25:28;;;;;;;19.52;5.43;;;;;;;9.50;100.00;100028.41;5022261;28;20116;-81
2024/02/07 02:28:17;;;;;;;21.00;6.05;;;;;;;9.42;100.00;100012.91;4997547;28;20542;-80
2024/02/07 02:30:50;;;;;;;18.58;6.57;;;;;;;9.46;100.00;100009.03;5009622;28;20049;-80
2024/02/07 02:33:18;;;;;;;18.75;6.53;;;;;;;9.45;100.00;100005.63;5025974;28;20045;-81
2024/02/07 02:35:49;;;;;;;14.00;5.50;;;;;;;9.50;100.00;99987.00;5010827;28;20037;-81
2024/02/07 02:38:20;;;;;;;22.10;5.75;;;;;;;9.46;100.00;99989.13;5027509;28;20029;-80
2024/02/07 02:40:48;;;;;;;15.25;5.97;;;;;;;9.47;100.00;99995.09;5003908;28;20056;-79
2024/02/07 02:43:13;;;;;;;17.65;5.70;;;;;;;9.44;100.00;99991.09;5026741;28;20076;-80
2024/02/07 02:45:39;;;;;;;27.60;6.40;;;;;;;9.47;100.00;99979.56;5021973;28;20506;-78
2024/02/07 02:48:05;;;;;;;22.50;5.95;;;;;;;9.43;100.00;99978.31;5013805;28;20042;-82
2024/02/07 02:50:32;;;;;;;24.17;6.25;;;;;;;9.44;100.00;99967.78;5013426;28;20062;-80
2024/02/07 02:52:58;;;;;;;17.40;5.97;;;;;;;9.51;100.00;99975.66;5025789;28;20029;-80
2024/02/07 02:55:25;;;;;;;17.98;6.07;;;;;;;9.47;100.00;99967.44;5003408;28;20104;-80
2024/02/07 02:57:50;;;;;;;11.05;5.10;;;;;;;9.41;100.00;99980.25;5009542;28;20396;-81
2024/02/07 03:00:20;;;;;;;13.63;5.18;;;;;;;9.45;100.00;99971.19;5021870;28;20046;-80
2024/02/07 03:02:46;;;;;;;15.65;5.75;;;;;;;9.46;100.00;99968.44;4991433;28;20128;-81
2024/02/07 03:08:05;;;;;;;18.73;6.75;;;;;;;9.38;100.00;99954.72;5008947;28;20030;-80
2024/02/07 03:10:31;;;;;;;18.48;5.53;;;;;;;9.46;100.00;99965.03;4990168;28;20034;-80
2024/02/07 03:12:56;;;;;;;20.17;6.85;;;;;;;9.46;100.00;99950.31;4994547;28;20030;-81
2024/02/07 03:15:22;;;;;;;14.40;5.55;;;;;;;9.46;100.00;99946.94;5002040;28;20561;-80
2024/02/07 03:17:48;;;;;;;14.25;6.00;;;;;;;9.38;100.00;99949.53;4986660;28;20532;-80
2024/02/07 03:20:14;;;;;;;11.60;4.40;;;;;;;9.38;100.00;99932.25;5007521;28;20107;-81
2024/02/07 03:22:40;;;;;;;21.30;6.82;;;;;;;9.40;100.00;99930.28;5007605;28;20036;-82
2024/02/07 03:25:07;;;;;;;18.20;5.10;;;;;;;9.42;100.00;99924.94;5026031;28;20033;-80
2024/02/07 03:27:33;;;;;;;12.88;4.07;;;;;;;9.44;100.00;99916.03;5018565;28;20022;-81
2024/02/07 03:30:00;;;;;;;9.27;3.97;;;;;;;9.38;100.00;99928.84;5024523;28;20029;-76
2024/02/07 03:32:25;;;;;;;10.98;4.70;;;;;;;9.39;100.00;99915.72;5006987;28;20117;-81
2024/02/07 03:34:53;;;;;;;14.40;4.55;;;;;;;9.39;100.00;99904.59;5023516;28;20030;-81
2024/02/07 03:37:19;;;;;;;20.88;5.78;;;;;;;9.46;100.00;99921.84;5025752;28;20029;-79
2024/02/07 03:39:44;;;;;;;17.92;4.97;;;;;;;9.39;100.00;99909.75;5024390;28;20122;-80
2024/02/07 03:42:10;;;;;;;10.55;4.60;;;;;;;9.46;100.00;99913.28;5020482;28;20038;-81
2024/02/07 03:44:37;;;;;;;9.65;4.78;;;;;;;9.41;100.00;99900.84;5010665;28;20041;-80
2024/02/07 03:47:02;;;;;;;13.32;4.15;;;;;;;9.38;100.00;99898.63;5026327;28;20492;-81
2024/02/07 03:49:28;;;;;;;19.20;4.30;;;;;;;9.39;100.00;99895.03;5020217;28;20033;-81
2024/02/07 03:51:53;;;;;;;12.85;3.83;;;;;;;9.44;100.00;99897.94;5010291;28;20033;-81
2024/02/07 03:54:19;;;;;;;8.75;3.45;;;;;;;9.49;100.00;99962.09;5020758;28;20095;-80
2024/02/07 03:56:44;;;;;;;3.80;2.00;;;;;;;9.26;100.00;100008.59;5012028;28;20061;-80
2024/02/07 03:59:10;;;;;;;12.27;1.10;;;;;;;8.38;100.00;100000.63;5009385;28;20036;-82
2024/02/07 04:01:35;;;;;;;3.75;1.20;;;;;;;7.66;100.00;99973.69;5024785;28;20567;-86
2024/02/07 04:04:01;;;;;;;8.05;1.05;;;;;;;7.23;100.00;100033.00;5025031;28;20028;-84
2024/02/07 04:06:28;;;;;;;4.25;1.02;;;;;;;7.18;100.00;100020.56;5010207;28;20045;-84
2024/02/07 04:08:55;;;;;;;2.60;0.70;;;;;;;6.83;100.00;100060.94;5025242;28;20029;-82
2024/02/07 05:16:23;;;;;;;5.38;0.70;;;;;;;5.04;100.00;100140.97;5029100;28;20052;-81
2024/02/07 05:18:48;;;;;;;4.60;0.80;;;;;;;4.94;100.00;100142.75;5008252;28;20068;-82
2024/02/07 05:21:14;;;;;;;3.20;0.60;;;;;;;4.97;100.00;100139.06;5014080;28;21634;-83
2024/02/07 05:23:40;;;;;;;4.07;0.85;;;;;;;4.86;100.00;100137.47;5029950;28;20025;-82
2024/02/07 05:26:06;;;;;;;11.25;0.93;;;;;;;4.75;100.00;100135.84;5031253;28;20030;-82
2024/02/07 05:28:32;;;;;;;6.88;0.70;;;;;;;4.75;100.00;100140.97;5028897;28;20108;-82
2024/02/07 05:30:57;;;;;;;3.63;0.50;;;;;;;4.90;100.00;100161.13;5026107;28;20049;-82
2024/02/07 05:33:22;;;;;;;4.95;0.60;;;;;;;4.79;100.00;100159.50;5018201;28;20044;-82
2024/02/07 05:35:48;;;;;;;6.28;0.80;;;;;;;4.78;100.00;100163.81;5013028;28;20040;-82
2024/02/07 05:38:13;;;;;;;4.22;0.68;;;;;;;4.78;100.00;100168.94;5017277;28;20040;-80
2024/02/07 05:40:39;;;;;;;5.00;0.90;;;;;;;4.66;100.00;100168.25;5012404;28;20547;-83
2024/02/07 05:43:05;;;;;;;3.83;1.08;;;;;;;4.72;100.00;100171.25;5028665;28;20036;-83
2024/02/07 05:45:31;;;;;;;5.50;1.05;;;;;;;4.71;100.00;100167.06;5022345;28;20125;-83
2024/02/07 05:47:56;;;;;;;7.20;1.20;;;;;;;4.56;100.00;100174.31;5010191;28;20076;-82
2024/02/07 05:50:22;;;;;;;6.72;1.00;;;;;;;4.61;100.00;100164.47;5016800;28;20504;-83
2024/02/07 05:52:48;;;;;;;7.75;0.98;;;;;;;4.56;100.00;100167.44;5015525;28;20486;-83
2024/02/07 05:55:13;;;;;;;11.50;1.40;;;;;;;4.66;100.00;100163.13;5005855;28;20042;-83
2024/02/07 05:57:39;;;;;;;8.02;1.50;;;;;;;4.59;100.00;100168.94;5041767;28;20090;-82
2024/02/07 06:00:07;;;;;;;7.38;0.70;;;;;;;4.59;100.00;100167.16;5014007;28;20079;-82
2024/02/07 06:02:39;;;;;;;6.20;0.93;;;;;;;4.54;100.00;100159.06;5022222;28;20037;-82
2024/02/07 06:05:05;;;;;;;7.47;0.90;;;;;;;4.54;100.00;100171.06;5016455;28;20041;-83
2024/02/07 06:07:31;;;;;;;12.13;1.73;;;;;;;4.51;100.00;100173.94;5012857;28;20033;-82
2024/02/07 06:09:57;;;;;;;4.85;1.15;;;;;;;4.55;100.00;100186.34;5011312;28;20035;-82
2024/02/07 06:12:23;;;;;;;11.50;1.25;;;;;;;4.49;100.00;100181.75;5013516;28;20043;-83
2024/02/07 06:14:48;;;;;;;6.85;1.15;;;;;;;4.46;100.00;100171.72;5012123;28;20045;-81
2024/02/07 06:17:14;;;;;;;7.28;1.02;;;;;;;4.37;100.00;100181.06;5024913;28;20041;-83
2024/02/07 06:19:39;;;;;;;8.25;0.95;;;;;;;4.32;100.00;100180.63;5017535;28;20499;-82
2024/02/07 06:22:05;;;;;;;5.13;1.00;;;;;;;4.22;100.00;100192.59;5011845;28;20148;-83
2024/02/07 06:24:31;;;;;;;6.93;0.70;;;;;;;4.19;100.00;100198.81;5026665;28;20048;-81
2024/02/07 06:26:59;;;;;;;4.68;0.73;;;;;;;4.25;100.00;100187.22;5004183;28;20722;-82
2024/02/07 06:29:24;;;;;;;7.43;0.88;;;;;;;4.33;100.00;100196.84;5011096;28;20439;-82
2024/02/07 06:31:50;;;;;;;6.30;1.33;;;;;;;4.25;100.00;100188.03;5025597;28;20117;-83
2024/02/07 06:34:15;;;;;;;8.50;1.08;;;;;;;4.30;100.00;100215.88;5017451;28;20025;-83
2024/02/07 06:36:41;;;;;;;8.63;0.90;;;;;;;4.26;100.00;100209.38;5022391;28;20030;-83
2024/02/07 06:39:06;;;;;;;4.80;1.58;;;;;;;4.16;100.00;100217.03;5010812;28;20025;-83
2024/02/07 06:41:32;;;;;;;4.20;0.88;;;;;;;4.17;100.00;100220.44;5011566;28;20408;-83
2024/02/07 06:43:57;;;;;;;7.47;0.70;;;;;;;4.21;100.00;100221.78;5011305;28;20388;-83
2024/02/07 06:46:23;;;;;;;4.45;0.77;;;;;;;4.14;100.00;100212.97;5026623;28;20099;-83
2024/02/07 06:48:49;;;;;;;9.68;1.30;;;;;;;4.09;100.00;100208.25;5028462;28;20037;-83
2024/02/07 06:51:14;;;;;;;4.05;0.63;;;;;;;4.07;100.00;100208.34;5010478;28;20036;-82
2024/02/07 06:53:40;;;;;;;6.82;0.90;;;;;;;4.09;100.00;100223.63;5013526;28;20037;-82
2024/02/07 06:56:06;;;;;;;11.18;1.60;;;;;;;4.12;100.00;100213.09;5026838;28;20046;-83
2024/02/07 06:58:32;;;;;;;4.93;1.55;;;;;;;4.14;100.00;100205.28;5025836;28;20025;-83
2024/02/07 07:00:58;;;;;;;8.23;0.95;;;;;;;4.14;100.00;100218.91;5010757;28;20076;-83
2024/02/07 07:03:27;;;;;;;8.20;2.28;;;;;;;4.17;100.00;100215.28;5024607;28;20065;-82
2024/02/07 07:05:52;;;;;;;6.57;1.10;;;;;;;4.12;100.00;100225.91;5013222;28;20029;-81
2024/02/07 07:08:18;;;;;;;6.20;1.00;;;;;;;3.96;100.00;100228.16;5010523;28;20527;-83
2024/02/07 07:10:43;;;;;;;4.78;0.80;;;;;;;4.00;100.00;100240.59;5024310;28;20029;-80
2024/02/07 07:13:09;;;;;;;9.75;1.33;;;;;;;4.01;100.00;100244.81;5008871;28;20029;-81
2024/02/07 07:15:34;;;;;;;4.68;1.25;;;;;;;4.04;100.00;100247.09;5014236;28;20030;-82
2024/02/07 07:18:00;;;;;;;5.07;0.90;;;;;;;4.07;100.00;100259.69;5022776;28;20025;-82
2024/02/07 07:20:31;;;;;;;5.40;1.02;;;;;;;4.10;100.00;100256.03;5027907;28;20072;-81
2024/02/07 07:23:00;;;;;;;4.35;0.65;;;;;;;4.12;100.00;100263.59;5011121;28;20032;-82
2024/02/07 07:25:26;;;;;;;7.25;1.02;;;;;;;4.10;100.00;100267.09;5041279;28;20068;-81
2024/02/07 07:27:51;;;;;;;3.55;0.80;;;;;;;4.16;100.00;100260.66;5012236;28;20065;-82
2024/02/07 07:30:17;;;;;;;10.45;1.73;;;;;;;4.07;100.00;100262.25;5027169;28;20049;-82
2024/02/07 07:32:43;;;;;;;8.48;1.02;;;;;;;4.09;100.00;100273.19;5027202;28;20124;-82
2024/02/07 07:35:08;;;;;;;4.18;1.20;;;;;;;4.14;100.00;100274.56;5025750;28;20065;-82
2024/02/07 07:37:34;;;;;;;5.72;1.05;;;;;;;4.11;100.00;100273.06;5022552;28;20403;-81
2024/02/07 07:40:01;;;;;;;4.97;1.23;;;;;;;3.98;100.00;100270.69;5009097;28;20064;-81
2024/02/07 07:42:27;;;;;;;5.97;1.45;;;;;;;3.98;100.00;100273.25;5007752;28;20080;-82
2024/02/07 07:44:52;;;;;;;6.45;1.67;;;;;;;4.05;100.00;100271.00;5010032;28;20025;-81
2024/02/07 07:47:18;;;;;;;5.25;1.50;;;;;;;3.97;100.00;100279.31;5004788;28;20487;-82
2024/02/07 07:49:43;;;;;;;5.70;1.52;;;;;;;3.95;100.00;100280.41;5009907;28;20861;-82
2024/02/07 07:52:09;;;;;;;8.68;1.98;;;;;;;3.94;100.00;100287.28;5010672;28;20037;-81
2024/02/07 07:54:37;;;;;;;4.50;1.30;;;;;;;4.01;100.00;100295.28;5019601;28;20037;-80
2024/02/07 07:57:03;;;;;;;5.63;1.23;;;;;;;4.07;100.00;100287.09;5025424;28;20041;-81
2024/02/07 07:59:31;;;;;;;4.90;1.88;;;;;;;4.14;100.00;100288.19;5009605;28;20033;-82
2024/02/07 08:01:58;;;;;;;4.90;1.85;;;;;;;4.11;100.00;100291.03;5027218;28;20144;-82
2024/02/07 08:04:24;;;;;;;4.90;1.70;;;;;;;4.12;100.00;100290.06;5028281;28;20038;-82
2024/02/07 08:06:49;;;;;;;4.72;1.65;;;;;;;4.15;100.00;100304.44;5028156;28;20034;-82
2024/02/07 08:09:15;;;;;;;6.68;1.58;;;;;;;4.18;100.00;100291.31;5025999;28;20499;-81
2024/02/07 08:11:41;;;;;;;4.50;1.85;;;;;;;4.19;100.00;100298.91;5029624;28;20034;-83
2024/02/07 08:14:07;;;;;;;7.25;1.60;;;;;;;4.21;100.00;100299.59;5029893;28;20026;-82
2024/02/07 08:16:32;;;;;;;7.93;1.77;;;;;;;4.26;100.00;100299.22;5029683;28;20037;-81
2024/02/07 08:18:58;;;;;;;8.40;2.05;;;;;;;4.29;100.00;100298.94;5030235;28;20477;-82
2024/02/07 08:21:23;;;;;;;5.32;1.52;;;;;;;4.29;100.00;100296.38;5029570;28;20033;-81
2024/02/07 08:23:48;;;;;;;11.32;2.03;;;;;;;4.32;100.00;100292.75;5029660;28;20057;-81
2024/02/07 08:26:14;;;;;;;3.40;1.17;;;;;;;4.33;100.00;100294.38;5030599;28;20424;-82
2024/02/07 08:28:39;;;;;;;4.13;1.20;;;;;;;4.35;100.00;100301.03;5028708;28;20033;-82
2024/02/07 08:31:05;;;;;;;4.00;1.50;;;;;;;4.36;100.00;100294.13;5026917;28;20041;-81
2024/02/07 08:33:30;;;;;;;6.45;1.92;;;;;;;4.34;100.00;100307.09;5030107;28;20052;-81
2024/02/07 08:35:55;;;;;;;4.22;1.50;;;;;;;4.36;100.00;100299.28;5028540;28;20037;-82
2024/02/07 08:38:21;;;;;;;4.03;1.52;;;;;;;4.36;100.00;100300.06;5025488;28;20111;-81
2024/02/07 08:40:46;;;;;;;5.07;1.20;;;;;;;4.37;100.00;100303.44;5029344;28;20029;-81
2024/02/07 08:43:12;;;;;;;2.30;0.93;;;;;;;4.38;100.00;100312.78;5030522;28;20045;-82
2024/02/07 08:45:37;;;;;;;5.40;1.63;;;;;;;4.35;100.00;100321.56;5029778;28;20040;-81
2024/02/07 08:48:05;;;;;;;4.78;1.27;;;;;;;4.33;100.00;100327.75;5028622;28;20056;-80
2024/02/07 08:50:31;;;;;;;6.35;1.30;;;;;;;4.32;100.00;100332.06;5024785;28;20048;-81
2024/02/07 08:52:56;;;;;;;4.57;1.52;;;;;;;4.36;100.00;100323.19;5027921;28;20041;-81
2024/02/07 08:55:22;;;;;;;4.25;1.70;;;;;;;4.41;100.00;100331.31;5029417;28;20045;-80
2024/02/07 08:57:47;;;;;;;7.43;1.83;;;;;;;4.37;100.00;100339.38;5027599;28;20045;-80
2024/02/07 09:00:13;;;;;;;6.80;1.65;;;;;;;4.34;100.00;100331.97;5026649;28;20056;-81
2024/02/07 09:02:38;;;;;;;9.00;2.33;;;;;;;4.37;100.00;100326.56;5029468;28;20484;-80
2024/02/07 09:05:04;;;;;;;7.40;1.90;;;;;;;4.44;100.00;100331.03;5025389;28;20535;-80
2024/02/07 09:07:34;;;;;;;6.68;2.17;;;;;;;4.45;100.00;100335.25;5025412;28;20029;-80
2024/02/07 09:10:00;;;;;;;7.07;2.20;;;;;;;4.48;100.00;100344.44;5028209;28;20075;-80
2024/02/07 09:12:27;;;;;;;5.50;1.83;;;;;;;4.51;100.00;100345.97;5029582;28;20037;-80
2024/02/07 09:14:55;;;;;;;6.68;2.05;;;;;;;4.46;100.00;100336.06;5028025;28;20025;-79
2024/02/07 09:17:22;;;;;;;6.43;1.63;;;;;;;4.41;100.00;100336.44;5026999;28;20041;-80
2024/02/07 09:19:47;;;;;;;8.18;2.42;;;;;;;4.43;100.00;100341.47;5034418;28;20038;-80
2024/02/07 09:22:13;;;;;;;5.40;1.92;;;;;;;4.44;100.00;100340.50;5025286;28;20048;-80
2024/02/07 09:24:40;;;;;;;9.23;2.70;;;;;;;4.40;100.00;100341.72;5029363;28;20041;-79
2024/02/07 09:27:05;;;;;;;5.38;2.15;;;;;;;4.42;100.00;100347.53;5027197;28;20148;-80
2024/02/07 09:29:30;;;;;;;6.68;2.10;;;;;;;4.45;100.00;100342.97;5022243;28;20053;-80
2024/02/07 09:31:56;;;;;;;5.47;2.75;;;;;;;4.43;100.00;100339.72;5030066;28;20041;-80
2024/02/07 09:34:21;;;;;;;3.72;1.92;;;;;;;4.44;100.00;100348.22;5029695;28;20069;-80
2024/02/07 09:36:47;;;;;;;5.95;1.92;;;;;;;4.46;100.00;100359.16;5028261;28;20037;-79
2024/02/07 09:39:12;;;;;;;6.80;1.90;;;;;;;4.48;100.00;100352.16;5024903;28;20075;-81
2024/02/07 09:41:43;;;;;;;5.35;1.65;;;;;;;4.44;100.00;100361.06;5027720;28;20029;-80
2024/02/07 09:44:15;;;;;;;5.95;1.60;;;;;;;4.45;100.00;100362.69;5025219;28;20083;-80
2024/02/07 09:46:43;;;;;;;7.38;1.67;;;;;;;4.46;100.00;100359.16;5025350;28;20076;-81
2024/02/07 09:49:14;;;;;;;6.60;1.77;;;;;;;4.48;100.00;100357.28;5025674;28;20399;-81
2024/02/07 09:51:43;;;;;;;4.57;1.73;;;;;;;4.48;100.00;100357.28;5026187;28;20038;-80
2024/02/07 09:54:12;;;;;;;8.20;3.15;;;;;;;4.52;100.00;100362.97;5025540;28;20506;-80
2024/02/07 09:56:39;;;;;;;8.85;2.80;;;;;;;4.56;100.00;100356.66;5029191;28;20097;-81
2024/02/07 09:59:06;;;;;;;6.65;2.30;;;;;;;4.57;100.00;100360.84;5028675;28;20036;-80
2024/02/07 10:01:33;;;;;;;4.38;2.55;;;;;;;4.57;100.00;100353.94;5026913;28;20040;-81
2024/02/07 10:04:01;;;;;;;11.88;2.42;;;;;;;4.60;100.00;100347.78;5012121;28;20037;-80
2024/02/07 10:06:27;;;;;;;5.95;2.38;;;;;;;4.54;100.00;100345.69;5026755;28;20033;-80
2024/02/07 10:08:54;;;;;;;6.47;2.28;;;;;;;4.56;100.00;100354.06;5009563;28;20104;-80
2024/02/07 10:11:25;;;;;;;9.73;2.42;;;;;;;4.55;100.00;100343.00;5007839;28;20029;-79
2024/02/07 10:13:51;;;;;;;15.00;4.03;;;;;;;4.45;100.00;100353.22;5027028;28;20404;-80
2024/02/07 10:16:17;;;;;;;19.95;7.45;;;;;;;4.56;100.00;100360.06;5028546;28;20034;-80
2024/02/07 10:18:44;;;;;;;7.88;4.03;;;;;;;4.55;100.00;100360.97;5021235;28;20041;-79
2024/02/07 10:21:10;;;;;;;14.25;6.50;;;;;;;4.60;100.00;100363.97;5016488;28;20056;-79
2024/02/07 10:23:36;;;;;;;9.40;5.30;;;;;;;4.66;100.00;100363.47;5024902;28;20415;-81
2024/02/07 10:26:02;;;;;;;9.00;3.30;;;;;;;4.71;100.00;100375.09;5023838;28;20034;-79
2024/02/07 10:28:27;;;;;;;11.52;2.60;;;;;;;4.74;100.00;100377.44;5023888;28;20404;-80
2024/02/07 10:31:00;;;;;;;5.80;2.17;;;;;;;4.73;100.00;100368.91;5013155;28;20401;-80
2024/02/07 10:33:36;;;;;;;7.05;1.90;;;;;;;4.74;100.00;100377.44;5030804;28;20120;-79
2024/02/07 10:36:03;;;;;;;6.18;1.85;;;;;;;4.68;100.00;100383.88;5015075;28;20037;-79
2024/02/07 10:38:29;;;;;;;7.70;1.88;;;;;;;4.65;100.00;100390.09;5026526;28;20030;-79
2024/02/07 10:40:55;;;;;;;6.75;1.73;;;;;;;4.60;100.00;100384.53;5037848;28;20156;-80
2024/02/07 10:43:29;;;;;;;6.45;1.65;;;;;;;4.61;100.00;100380.19;5026450;28;20111;-79
2024/02/07 10:46:10;;;;;;;17.15;9.55;;;;;;;4.66;100.00;100390.91;5040988;28;20037;-80
2024/02/07 10:48:39;;;;;;;19.20;8.57;;;;;;;4.70;100.00;100389.72;5027233;28;20029;-80
2024/02/07 10:51:05;;;;;;;15.07;6.75;;;;;;;4.71;100.00;100380.25;5023021;28;20038;-80
2024/02/07 10:53:30;;;;;;;19.52;7.93;;;;;;;4.75;100.00;100385.00;5009553;28;20060;-80
2024/02/07 10:55:59;;;;;;;9.23;3.40;;;;;;;4.76;100.00;100383.25;5025166;28;20045;-79
2024/02/07 10:58:26;;;;;;;8.88;2.80;;;;;;;4.77;100.00;100377.97;5024997;28;20281;-79
2024/02/07 11:00:53;;;;;;;8.70;2.92;;;;;;;4.80;100.00;100370.03;5009954;28;20030;-79
2024/02/07 11:03:25;;;;;;;17.85;6.80;;;;;;;4.82;100.00;100364.75;5027773;28;20031;-80
2024/02/07 11:05:51;;;;;;;7.57;2.30;;;;;;;4.94;100.00;100355.22;5038453;28;20049;-80
2024/02/07 11:08:17;;;;;;;10.80;1.98;;;;;;;4.85;100.00;100356.78;5024934;28;20032;-79
2024/02/07 11:10:43;;;;;;;5.35;2.00;;;;;;;4.79;100.00;100349.59;5021000;28;20037;-80
2024/02/07 11:13:10;;;;;;;6.55;3.25;;;;;;;4.81;100.00;100347.72;5012817;28;20033;-80
2024/02/07 11:15:36;;;;;;;18.13;7.03;;;;;;;4.81;100.00;100335.69;5020285;28;20052;-80
2024/02/07 11:18:03;;;;;;;18.48;9.05;;;;;;;4.81;100.00;100334.88;5008921;28;20053;-80
2024/02/07 11:20:30;;;;;;;11.20;3.45;;;;;;;4.83;100.00;100309.88;5005624;28;20068;-80
2024/02/07 11:22:58;;;;;;;7.78;2.28;;;;;;;4.88;100.00;100307.72;5025452;28;20029;-79
2024/02/07 11:25:25;;;;;;;11.65;2.45;;;;;;;4.80;100.00;100310.94;5008793;28;20045;-80
2024/02/07 11:27:51;;;;;;;9.30;2.30;;;;;;;4.76;100.00;100308.75;5024831;28;20033;-79
2024/02/07 11:30:20;;;;;;;9.45;2.78;;;;;;;4.67;100.00;100318.88;5013419;28;20057;-80
2024/02/07 11:32:51;;;;;;;7.45;2.00;;;;;;;4.61;100.00;100314.22;5009548;28;20037;-80
2024/02/07 11:35:22;;;;;;;9.68;2.08;;;;;;;4.56;100.00;100313.81;5018248;28;20068;-80
2024/02/07 11:37:48;;;;;;;5.18;2.17;;;;;;;4.48;100.00;100324.75;5027575;28;20129;-79
2024/02/07 11:40:14;;;;;;;3.60;1.83;;;;;;;4.41;100.00;100323.63;5007892;28;20037;-79
2024/02/07 11:42:40;;;;;;;8.38;3.08;;;;;;;4.43;100.00;100314.03;5009297;28;20038;-78
2024/02/07 11:45:11;;;;;;;9.70;1.77;;;;;;;4.44;100.00;100310.50;5010572;28;20061;-80
2024/02/07 11:47:42;;;;;;;5.07;1.73;;;;;;;4.30;100.00;100308.28;5025836;28;20065;-79
2024/02/07 11:50:12;;;;;;;6.53;1.73;;;;;;;4.35;100.00;100329.28;5024249;28;20041;-79
2024/02/07 11:52:41;;;;;;;3.65;2.10;;;;;;;4.35;100.00;100331.00;5007668;28;20031;-80
2024/02/07 11:55:08;;;;;;;12.13;3.97;;;;;;;4.37;100.00;100339.38;5029621;28;20037;-80
2024/02/07 11:57:34;;;;;;;9.18;3.10;;;;;;;4.42;100.00;100342.41;5016377;28;20029;-80
2024/02/07 12:00:01;;;;;;;8.13;2.20;;;;;;;4.39;100.00;100345.19;5010315;28;20034;-79
2024/02/07 12:02:26;;;;;;;9.45;2.50;;;;;;;4.43;100.00;100332.00;5019998;28;20021;-79
2024/02/07 12:04:52;;;;;;;4.03;1.67;;;;;;;4.41;100.00;100333.88;5013024;28;20072;-80
2024/02/07 12:07:18;;;;;;;7.28;1.40;;;;;;;4.39;100.00;100325.50;5012006;28;20025;-79
2024/02/07 12:09:44;;;;;;;9.10;1.88;;;;;;;4.47;100.00;100320.53;5007003;28;20044;-79
2024/02/07 12:12:13;;;;;;;5.65;2.03;;;;;;;4.48;100.00;100321.34;5015200;28;20046;-80
2024/02/07 12:14:40;;;;;;;6.43;2.13;;;;;;;4.52;100.00;100314.19;5014080;28;20492;-79
2024/02/07 12:17:06;;;;;;;5.50;1.88;;;;;;;4.55;100.00;100316.50;5013894;28;20923;-80
2024/02/07 12:19:35;;;;;;;7.80;2.10;;;;;;;4.60;100.00;100309.25;5026904;28;20382;-80
2024/02/07 12:22:01;;;;;;;11.25;3.28;;;;;;;4.61;100.00;100303.16;5011171;28;20109;-80
2024/02/07 12:24:32;;;;;;;14.38;4.47;;;;;;;4.67;100.00;100295.75;5011063;28;20156;-80
2024/02/07 12:27:27;;;;;;;6.80;2.65;;;;;;;4.62;100.00;100286.81;5012919;28;20761;-80
2024/02/07 12:29:54;;;;;;;7.70;5.43;;;;;;;4.62;100.00;100279.09;5015888;28;20049;-80